Time;durP1;ratioP1;P1;durP2;ratioP2;P2;SDS_P1;SDS_P2;PMS_P1;PMS_P2;Temp;Humidity;BMP_temperature;BMP_pressure;BME280_temperature;BME280_humidity;BME280_pressure;Samples;Min_cycle;Max_cycle;Signal;HPM_P1;HPM_P2
2022/01/14 00:01:50;;;;;;;19.55;17.75;;;;;;;-3.22;56.37;96224.06;5075513;28;20582;-64
2022/01/14 00:04:17;;;;;;;18.58;16.98;;;;;;;-3.22;56.43;96215.13;5075584;28;20629;-64
2022/01/14 00:06:45;;;;;;;20.27;18.27;;;;;;;-3.24;56.67;96217.25;5076268;28;20189;-64
2022/01/14 00:09:13;;;;;;;19.98;18.15;;;;;;;-3.25;56.82;96213.72;5075957;28;20524;-64
2022/01/14 00:11:45;;;;;;;18.95;17.23;;;;;;;-3.26;56.93;96209.41;5075804;28;20535;-64
2022/01/14 00:14:21;;;;;;;20.17;18.38;;;;;;;-3.25;56.79;96212.91;5076412;28;20196;-64
2022/01/14 00:16:49;;;;;;;19.33;17.52;;;;;;;-3.21;56.52;96224.88;5075297;28;20212;-64
2022/01/14 00:19:17;;;;;;;19.92;18.05;;;;;;;-3.19;56.44;96225.47;5075729;28;20177;-64
2022/01/14 00:21:45;;;;;;;18.67;16.88;;;;;;;-3.19;56.32;96233.56;5075258;28;20197;-64
2022/01/14 00:24:23;;;;;;;19.30;17.55;;;;;;;-3.16;56.49;96224.97;5075757;28;20209;-64
2022/01/14 00:32:33;;;;;;;18.85;17.08;;;;;;;-3.05;56.02;96243.03;5021217;28;20206;-64
2022/01/14 00:35:00;;;;;;;18.30;16.60;;;;;;;-3.10;56.18;96237.50;5075680;28;20528;-65
2022/01/14 00:37:28;;;;;;;18.65;16.85;;;;;;;-3.07;56.31;96237.03;5074843;28;20201;-65
2022/01/14 00:39:55;;;;;;;18.90;17.10;;;;;;;-3.08;56.02;96240.81;5075729;28;20185;-65
2022/01/14 00:42:22;;;;;;;20.38;18.38;;;;;;;-3.08;56.28;96238.09;5075639;28;20197;-65
2022/01/14 00:44:48;;;;;;;17.80;16.10;;;;;;;-3.08;56.35;96230.00;5075597;28;20246;-64
2022/01/14 00:47:15;;;;;;;19.25;17.35;;;;;;;-3.08;56.11;96232.72;5075354;28;20200;-64
2022/01/14 00:49:42;;;;;;;18.83;17.13;;;;;;;-3.10;56.26;96242.09;5076217;28;20220;-64
2022/01/14 00:52:09;;;;;;;19.33;17.52;;;;;;;-3.08;56.17;96248.09;5074624;28;20201;-64
2022/01/14 00:54:37;;;;;;;18.35;16.65;;;;;;;-3.05;56.25;96247.59;5075431;28;20516;-64
2022/01/14 00:57:26;;;;;;;18.60;16.90;;;;;;;-3.03;56.04;96250.88;5075100;28;20185;-65
2022/01/14 00:59:52;;;;;;;20.17;18.27;;;;;;;-3.03;56.59;96250.88;5074795;28;20197;-65
2022/01/14 01:02:18;;;;;;;21.23;19.20;;;;;;;-3.07;56.62;96255.13;5074451;28;20262;-65
2022/01/14 01:04:45;;;;;;;19.40;17.60;;;;;;;-3.07;56.35;96249.72;5074869;28;20283;-64
2022/01/14 01:07:14;;;;;;;19.73;17.92;;;;;;;-3.06;56.07;96251.34;5075688;28;20193;-65
2022/01/14 01:09:47;;;;;;;21.25;19.35;;;;;;;-3.07;56.35;96245.13;5074671;28;20193;-65
2022/01/14 01:12:17;;;;;;;21.67;19.63;;;;;;;-3.09;56.45;96241.84;5075184;28;20197;-65
2022/01/14 01:14:48;;;;;;;19.65;17.85;;;;;;;-3.05;56.08;96240.34;5074044;28;20203;-65
2022/01/14 01:17:15;;;;;;;20.08;18.17;;;;;;;-3.03;56.08;96227.41;5075234;28;20237;-65
2022/01/14 01:19:43;;;;;;;20.15;18.15;;;;;;;-3.02;56.31;96226.34;5075183;28;20185;-64
2022/01/14 01:22:10;;;;;;;19.80;17.95;;;;;;;-2.99;55.81;96222.34;5074870;28;20601;-65
2022/01/14 01:24:37;;;;;;;18.42;16.63;;;;;;;-2.93;55.45;96218.69;5074784;28;20200;-65
2022/01/14 01:27:08;;;;;;;17.83;16.02;;;;;;;-2.87;55.30;96216.91;5073791;28;20250;-65
2022/01/14 01:29:53;;;;;;;18.05;16.15;;;;;;;-2.88;55.16;96204.47;5075154;28;20201;-65
2022/01/14 01:32:20;;;;;;;17.70;16.00;;;;;;;-2.90;55.46;96210.13;5074340;28;20227;-65
2022/01/14 01:34:46;;;;;;;18.15;16.35;;;;;;;-2.86;55.11;96203.19;5074867;28;20185;-65
2022/01/14 01:37:13;;;;;;;17.30;15.60;;;;;;;-2.83;54.86;96204.56;5075107;28;20184;-65
2022/01/14 01:39:40;;;;;;;16.90;15.27;;;;;;;-2.84;54.86;96203.75;5074532;28;20197;-65
2022/01/14 01:42:10;;;;;;;18.60;16.80;;;;;;;-2.80;54.89;96213.00;5075227;28;20193;-65
2022/01/14 01:44:38;;;;;;;17.83;16.13;;;;;;;-2.82;55.37;96198.94;5074891;28;20181;-65
2022/01/14 01:47:06;;;;;;;18.08;16.38;;;;;;;-2.85;54.83;96196.72;5074930;28;20192;-64
2022/01/14 01:49:35;;;;;;;18.40;16.50;;;;;;;-2.88;55.67;96196.38;5075230;28;20201;-64
2022/01/14 01:52:03;;;;;;;17.05;15.45;;;;;;;-2.88;55.54;96196.38;5074941;28;20213;-64
2022/01/14 01:54:30;;;;;;;19.15;17.25;;;;;;;-2.90;55.24;96193.94;5074989;28;20189;-64
2022/01/14 01:56:57;;;;;;;18.35;16.48;;;;;;;-2.92;55.69;96194.16;5074021;28;20197;-64
2022/01/14 01:59:27;;;;;;;19.02;17.13;;;;;;;-2.94;55.94;96190.06;5074008;28;20209;-64
2022/01/14 02:01:55;;;;;;;18.85;17.13;;;;;;;-2.98;56.07;96188.88;5074820;28;20185;-65
2022/01/14 02:04:22;;;;;;;19.42;17.48;;;;;;;-2.99;55.99;96184.56;5074110;28;20215;-64
2022/01/14 02:06:51;;;;;;;19.80;17.88;;;;;;;-3.00;56.07;96177.53;5074019;28;20193;-64
2022/01/14 02:09:17;;;;;;;19.45;17.35;;;;;;;-3.00;55.77;96166.72;5074469;28;20185;-64
2022/01/14 02:11:44;;;;;;;19.25;17.30;;;;;;;-2.99;55.94;96169.19;5074589;28;20212;-64
2022/01/14 02:14:26;;;;;;;18.77;16.98;;;;;;;-3.03;55.73;96159.91;5074818;28;20189;-64
2022/01/14 02:17:27;;;;;;;18.52;16.73;;;;;;;-3.06;56.15;96148.78;5073783;28;20202;-64
2022/01/14 02:22:50;;;;;;;18.70;16.98;;;;;;;-3.05;55.86;96137.78;5074367;28;20190;-64
2022/01/14 02:25:28;;;;;;;18.77;16.88;;;;;;;-3.04;55.66;96139.41;5076243;28;20208;-64
2022/01/14 02:27:55;;;;;;;18.13;16.40;;;;;;;-3.06;55.56;96133.41;5076884;28;20240;-64
2022/01/14 02:30:22;;;;;;;19.08;17.13;;;;;;;-3.09;55.85;96127.66;5077339;28;20223;-64
2022/01/14 02:32:49;;;;;;;18.77;16.88;;;;;;;-3.08;55.60;96130.16;5077832;28;20182;-64
2022/01/14 02:35:17;;;;;;;17.35;15.65;;;;;;;-3.12;55.84;96139.78;5078449;28;20194;-64
2022/01/14 02:37:44;;;;;;;18.60;16.80;;;;;;;-3.12;55.71;96129.00;5077166;28;20193;-64
2022/01/14 02:40:12;;;;;;;18.25;16.45;;;;;;;-3.14;55.90;96117.59;5077512;28;20196;-64
2022/01/14 02:42:39;;;;;;;18.65;16.85;;;;;;;-3.16;56.12;96117.00;5078030;28;20204;-64
2022/01/14 02:45:10;;;;;;;18.95;17.25;;;;;;;-3.16;56.16;96119.72;5077702;28;20589;-64
2022/01/14 02:47:38;;;;;;;18.98;17.17;;;;;;;-3.13;56.32;96124.63;5076918;28;20629;-64
2022/01/14 02:50:07;;;;;;;17.70;15.85;;;;;;;-3.12;56.08;96112.81;5077795;28;20185;-64
2022/01/14 02:52:53;;;;;;;17.40;15.68;;;;;;;-3.11;55.82;96124.41;5077519;28;20272;-64
2022/01/14 02:55:22;;;;;;;17.35;15.68;;;;;;;-3.08;55.90;96115.84;5077191;28;20246;-65
2022/01/14 02:57:50;;;;;;;17.13;15.52;;;;;;;-3.09;55.50;96124.97;5077192;28;20208;-64
2022/01/14 03:00:19;;;;;;;15.85;14.35;;;;;;;-3.02;55.45;96120.25;5077659;28;20178;-64
2022/01/14 03:02:48;;;;;;;16.48;15.02;;;;;;;-2.98;55.32;96113.31;5077410;28;20192;-65
2022/01/14 03:05:16;;;;;;;17.25;15.65;;;;;;;-2.98;55.27;96107.91;5077371;28;20181;-65
2022/01/14 03:07:45;;;;;;;17.20;15.50;;;;;;;-2.99;55.80;96108.97;5076652;28;20204;-65
2022/01/14 03:10:13;;;;;;;17.23;15.63;;;;;;;-3.01;55.54;96111.13;5077479;28;20190;-64
2022/01/14 03:12:40;;;;;;;16.67;15.07;;;;;;;-3.04;55.72;96100.78;5076634;28;20193;-65
2022/01/14 03:15:09;;;;;;;16.73;15.13;;;;;;;-3.06;55.77;96106.41;5076826;28;20197;-65
2022/01/14 03:17:35;;;;;;;18.15;16.35;;;;;;;-3.11;56.04;96092.84;5076262;28;20196;-65
2022/01/14 03:20:04;;;;;;;17.27;15.57;;;;;;;-3.12;55.93;96090.38;5077483;28;20280;-65
2022/01/14 03:22:34;;;;;;;17.00;15.50;;;;;;;-3.13;55.97;96077.94;5077251;28;20268;-65
2022/01/14 03:27:48;;;;;;;17.33;15.70;;;;;;;-3.07;55.88;96075.09;5076418;28;20569;-65
2022/01/14 03:30:15;;;;;;;16.70;15.20;;;;;;;-3.01;55.25;96073.31;5077018;28;20200;-65
2022/01/14 03:32:42;;;;;;;16.67;15.15;;;;;;;-2.97;55.08;96067.19;5076246;28;20517;-65
2022/01/14 03:35:10;;;;;;;16.75;15.15;;;;;;;-2.93;54.82;96068.34;5076465;28;20197;-64
2022/01/14 03:37:37;;;;;;;16.80;15.20;;;;;;;-2.97;55.22;96056.38;5076670;28;20528;-65
2022/01/14 03:40:07;;;;;;;16.65;15.05;;;;;;;-2.98;54.93;96053.91;5077002;28;20197;-65
2022/01/14 03:42:34;;;;;;;15.30;13.82;;;;;;;-2.94;54.77;96049.69;5076852;28;20189;-64
2022/01/14 03:45:01;;;;;;;15.30;13.82;;;;;;;-2.93;54.87;96040.53;5075962;28;20215;-64
2022/01/14 03:47:28;;;;;;;15.27;13.88;;;;;;;-2.94;54.96;96045.09;5076958;28;20242;-65
2022/01/14 03:49:55;;;;;;;15.93;14.35;;;;;;;-2.99;54.79;96034.22;5076441;28;20192;-64
2022/01/14 03:52:21;;;;;;;19.27;17.48;;;;;;;-3.00;55.40;96043.38;5075724;28;20270;-64
2022/01/14 03:54:49;;;;;;;17.90;16.13;;;;;;;-3.05;55.20;96046.00;5076887;28;20185;-65
2022/01/14 03:57:17;;;;;;;16.92;15.32;;;;;;;-3.06;55.58;96048.91;5076650;28;20181;-64
2022/01/14 03:59:44;;;;;;;16.73;15.23;;;;;;;-3.05;54.88;96048.69;5076781;28;20186;-65
2022/01/14 04:02:11;;;;;;;17.20;15.40;;;;;;;-3.06;54.83;96052.44;5076439;28;20208;-65
2022/01/14 04:04:37;;;;;;;17.30;15.57;;;;;;;-3.06;55.12;96041.63;5075747;28;20205;-65
2022/01/14 04:07:04;;;;;;;17.50;15.80;;;;;;;-3.03;54.89;96051.94;5076006;28;20601;-64
2022/01/14 04:09:36;;;;;;;17.52;15.85;;;;;;;-3.02;55.04;96058.97;5075339;28;20196;-65
2022/01/14 04:12:03;;;;;;;18.75;16.77;;;;;;;-2.99;55.15;96046.88;5075821;28;20266;-65
2022/01/14 04:17:16;;;;;;;18.33;16.42;;;;;;;-2.98;54.84;96032.31;5075583;28;20291;-64
2022/01/14 04:19:43;;;;;;;17.90;16.25;;;;;;;-2.98;54.66;96024.22;5076253;28;20190;-64
2022/01/14 04:22:09;;;;;;;17.90;16.00;;;;;;;-2.96;54.64;96033.72;5075117;28;20196;-64
2022/01/14 04:24:36;;;;;;;18.63;16.77;;;;;;;-2.99;54.76;96020.72;5075020;28;20577;-64
2022/01/14 04:27:03;;;;;;;19.50;17.60;;;;;;;-2.98;54.85;96018.81;5074623;28;20708;-64
2022/01/14 04:29:32;;;;;;;17.95;16.25;;;;;;;-2.96;54.94;96019.41;5075669;28;20189;-65
2022/01/14 04:31:59;;;;;;;16.42;14.93;;;;;;;-2.94;54.85;96015.41;5075044;28;20213;-64
2022/01/14 04:34:26;;;;;;;18.35;16.52;;;;;;;-2.91;54.47;96027.59;5075545;28;20177;-64
2022/01/14 04:36:54;;;;;;;18.20;16.20;;;;;;;-2.91;54.67;96025.69;5075704;28;20189;-64
2022/01/14 04:39:21;;;;;;;17.90;16.17;;;;;;;-2.91;54.64;96027.59;5075071;28;20205;-65
2022/01/14 04:41:48;;;;;;;17.67;15.88;;;;;;;-2.91;54.41;96020.28;5075896;28;20188;-64
2022/01/14 04:44:14;;;;;;;17.67;15.98;;;;;;;-2.94;54.62;96017.31;5075370;28;20201;-64
2022/01/14 04:47:02;;;;;;;17.17;15.55;;;;;;;-2.93;54.47;96022.44;5075285;28;20185;-65
2022/01/14 04:49:28;;;;;;;17.80;15.80;;;;;;;-2.95;54.79;96029.94;5074514;28;20200;-64
2022/01/14 04:51:56;;;;;;;17.27;15.68;;;;;;;-2.92;54.76;96024.06;5075510;28;20205;-64
2022/01/14 04:54:23;;;;;;;17.13;15.43;;;;;;;-2.89;54.76;96016.56;5074903;28;20296;-65
2022/01/14 04:56:51;;;;;;;16.75;15.10;;;;;;;-2.82;54.42;96019.91;5075162;28;20285;-65
2022/01/14 04:59:18;;;;;;;16.85;15.23;;;;;;;-2.79;54.04;96014.03;5074974;28;20200;-65
2022/01/14 05:01:46;;;;;;;14.20;12.70;;;;;;;-2.79;54.37;96024.84;5075750;28;20193;-64
2022/01/14 05:04:13;;;;;;;15.27;13.68;;;;;;;-2.77;54.52;96018.09;5075634;28;20192;-63
2022/01/14 05:06:41;;;;;;;16.05;14.32;;;;;;;-2.77;54.48;96014.59;5074425;28;20708;-63
2022/01/14 05:09:18;;;;;;;15.15;13.07;;;;;;;-2.75;54.62;96002.47;5075558;28;20192;-63
2022/01/14 05:11:52;;;;;;;16.58;14.32;;;;;;;-2.74;54.60;95995.19;5075504;28;20201;-63
2022/01/14 05:14:19;;;;;;;15.57;13.90;;;;;;;-2.76;54.65;96003.56;5075036;28;20227;-62
2022/01/14 05:16:47;;;;;;;18.00;15.00;;;;;;;-2.80;54.70;96005.09;5074218;28;20514;-63
2022/01/14 05:19:14;;;;;;;17.55;14.73;;;;;;;-2.81;54.86;96013.44;5075248;28;20200;-63
2022/01/14 05:21:41;;;;;;;17.45;15.00;;;;;;;-2.85;54.58;96017.69;5074983;28;20183;-63
2022/01/14 05:24:08;;;;;;;16.95;14.65;;;;;;;-2.85;54.24;96021.22;5075082;28;20190;-63
2022/01/14 05:26:35;;;;;;;19.55;17.65;;;;;;;-2.86;54.51;96019.59;5075279;28;20181;-64
2022/01/14 05:29:02;;;;;;;19.80;17.90;;;;;;;-2.87;54.32;96019.81;5075574;28;20319;-66
2022/01/14 05:31:45;;;;;;;19.30;17.50;;;;;;;-2.90;54.11;96023.84;5074267;28;20439;-65
2022/01/14 05:34:14;;;;;;;21.42;19.50;;;;;;;-2.95;54.21;96021.84;5075164;28;20177;-65
2022/01/14 05:36:41;;;;;;;20.52;18.42;;;;;;;-2.97;54.46;96031.28;5074366;28;20201;-65
2022/01/14 05:39:08;;;;;;;21.52;19.23;;;;;;;-3.02;54.53;96021.19;5074692;28;20614;-65
2022/01/14 05:41:36;;;;;;;21.77;19.55;;;;;;;-3.06;54.77;96022.75;5074633;28;20238;-65
2022/01/14 05:44:04;;;;;;;22.83;20.52;;;;;;;-3.15;54.88;96008.84;5075026;28;20196;-65
2022/01/14 05:46:31;;;;;;;23.88;21.27;;;;;;;-3.12;55.30;96012.94;5074994;28;20181;-65
2022/01/14 05:48:57;;;;;;;21.08;19.05;;;;;;;-3.06;54.78;96011.13;5075179;28;20201;-65
2022/01/14 05:51:25;;;;;;;22.00;19.60;;;;;;;-2.99;54.95;96011.81;5073972;28;20576;-65
2022/01/14 05:53:52;;;;;;;19.70;17.80;;;;;;;-2.94;54.89;96006.50;5074197;28;20201;-65
2022/01/14 05:56:19;;;;;;;19.38;17.48;;;;;;;-2.92;54.57;96013.28;5074060;28;20200;-65
2022/01/14 05:58:46;;;;;;;19.35;17.35;;;;;;;-2.88;54.86;96007.38;5073904;28;20197;-65
2022/01/14 06:01:13;;;;;;;19.45;17.40;;;;;;;-2.84;54.82;96001.25;5076841;28;20605;-65
2022/01/14 06:03:39;;;;;;;20.27;17.52;;;;;;;-2.78;54.65;95999.47;5078959;28;20200;-65
2022/01/14 06:06:06;;;;;;;19.20;17.35;;;;;;;-2.76;54.92;96000.00;5079126;28;20193;-65
2022/01/14 06:08:34;;;;;;;20.50;18.40;;;;;;;-2.71;54.49;96000.91;5079155;28;20185;-65
2022/01/14 06:11:01;;;;;;;20.38;18.20;;;;;;;-2.65;54.55;96001.84;5077385;28;20209;-65
2022/01/14 06:13:28;;;;;;;20.88;18.65;;;;;;;-2.62;54.89;95987.00;5077867;28;20204;-65
2022/01/14 06:15:55;;;;;;;21.13;19.15;;;;;;;-2.62;54.74;95997.81;5078862;28;20205;-65
2022/01/14 06:18:22;;;;;;;21.58;19.55;;;;;;;-2.64;54.58;95992.66;5079177;28;20200;-64
2022/01/14 06:20:48;;;;;;;22.35;20.15;;;;;;;-2.63;54.62;95990.78;5077514;28;20546;-65
2022/01/14 06:23:15;;;;;;;20.95;18.85;;;;;;;-2.61;54.91;95992.16;5077829;28;20201;-65
2022/01/14 06:25:44;;;;;;;22.67;20.38;;;;;;;-2.58;54.69;95985.44;5077794;28;20200;-65
2022/01/14 06:28:11;;;;;;;22.52;20.42;;;;;;;-2.52;55.08;95984.44;5077223;28;20331;-65
2022/01/14 06:30:38;;;;;;;21.45;19.45;;;;;;;-2.48;54.88;95985.59;5077278;28;20532;-65
2022/01/14 06:33:04;;;;;;;22.23;20.08;;;;;;;-2.44;54.90;95982.13;5078506;28;20213;-65
2022/01/14 06:35:31;;;;;;;22.80;20.35;;;;;;;-2.37;54.88;95973.03;5077461;28;20189;-65
2022/01/14 06:37:59;;;;;;;21.50;19.40;;;;;;;-2.31;54.97;95969.34;5078285;28;20188;-65
2022/01/14 06:40:26;;;;;;;22.25;20.20;;;;;;;-2.29;55.15;95969.91;5078048;28;20209;-65
2022/01/14 06:42:55;;;;;;;22.85;20.52;;;;;;;-2.25;54.86;95971.88;5078051;28;20178;-65
2022/01/14 06:45:22;;;;;;;22.88;20.63;;;;;;;-2.17;54.84;95986.84;5077710;28;20188;-65
2022/01/14 06:47:49;;;;;;;23.83;21.42;;;;;;;-2.10;55.11;95976.66;5076959;28;20204;-65
2022/01/14 06:50:16;;;;;;;21.20;19.10;;;;;;;-2.01;55.08;95969.72;5077974;28;20173;-65
2022/01/14 06:52:43;;;;;;;21.48;19.35;;;;;;;-1.92;55.05;95969.28;5077472;28;20201;-65
2022/01/14 06:55:10;;;;;;;18.38;16.65;;;;;;;-1.81;54.79;95962.97;5077751;28;20185;-65
2022/01/14 06:57:37;;;;;;;18.63;17.02;;;;;;;-1.71;54.63;95950.38;5076871;28;20199;-65
2022/01/14 07:00:07;;;;;;;18.60;16.67;;;;;;;-1.61;54.41;95938.00;5077745;28;20203;-65
2022/01/14 07:02:34;;;;;;;17.92;16.15;;;;;;;-1.51;54.61;95938.13;5077688;28;20188;-65
2022/01/14 07:05:01;;;;;;;16.90;15.20;;;;;;;-1.43;54.93;95937.66;5077775;28;20197;-65
2022/01/14 07:07:28;;;;;;;18.27;16.48;;;;;;;-1.36;55.18;95940.16;5077620;28;20181;-65
2022/01/14 07:09:58;;;;;;;18.92;16.92;;;;;;;-1.28;55.41;95942.38;5076496;28;20366;-64
2022/01/14 07:12:25;;;;;;;18.65;16.67;;;;;;;-1.22;55.53;95930.53;5076060;28;20282;-65
2022/01/14 07:14:52;;;;;;;19.63;17.58;;;;;;;-1.12;55.98;95925.22;5077407;28;20189;-65
2022/01/14 07:17:21;;;;;;;19.25;17.38;;;;;;;-1.06;55.68;95920.66;5077348;28;20207;-65
2022/01/14 07:19:50;;;;;;;21.55;19.08;;;;;;;-1.02;56.04;95919.03;5076569;28;20193;-65
2022/01/14 07:22:17;;;;;;;18.65;16.73;;;;;;;-0.98;56.57;95925.59;5076486;28;20197;-65
2022/01/14 07:24:44;;;;;;;19.83;17.50;;;;;;;-0.90;57.01;95921.59;5077252;28;20210;-65
2022/01/14 07:27:11;;;;;;;18.15;16.13;;;;;;;-0.85;57.00;95922.44;5076095;28;20196;-65
2022/01/14 07:29:38;;;;;;;19.58;17.52;;;;;;;-0.77;56.91;95929.25;5076580;28;20201;-65
2022/01/14 07:32:05;;;;;;;21.80;17.73;;;;;;;-0.68;57.44;95935.84;5076322;28;20209;-65
2022/01/14 07:34:34;;;;;;;20.45;18.25;;;;;;;-0.62;57.61;95923.13;5076148;28;20201;-65
2022/01/14 07:37:01;;;;;;;18.35;16.38;;;;;;;-0.58;58.11;95921.53;5076174;28;20193;-65
2022/01/14 07:39:28;;;;;;;18.20;15.98;;;;;;;-0.56;57.87;95913.94;5076942;28;20212;-65
2022/01/14 07:41:55;;;;;;;21.30;18.00;;;;;;;-0.53;57.69;95908.81;5076651;28;20191;-65
2022/01/14 07:44:22;;;;;;;18.70;15.50;;;;;;;-0.44;58.37;95903.72;5075899;28;20197;-65
2022/01/14 07:46:49;;;;;;;16.73;15.02;;;;;;;-0.40;58.53;95901.28;5076583;28;20294;-65
2022/01/14 07:49:16;;;;;;;16.55;14.93;;;;;;;-0.35;58.57;95902.16;5077224;28;20274;-65
2022/01/14 07:51:44;;;;;;;17.45;15.45;;;;;;;-0.29;58.43;95908.41;5076674;28;20251;-65
2022/01/14 07:54:11;;;;;;;19.60;17.05;;;;;;;-0.25;58.29;95899.50;5076621;28;20189;-65
2022/01/14 07:56:45;;;;;;;18.10;15.35;;;;;;;-0.17;58.63;95900.88;5075580;28;20197;-65
2022/01/14 07:59:12;;;;;;;22.65;18.23;;;;;;;-0.08;59.31;95898.47;5077090;28;20185;-65
2022/01/14 08:01:39;;;;;;;18.52;15.50;;;;;;;0.00;59.80;95892.56;5075828;28;20197;-65
2022/01/14 08:04:06;;;;;;;11.80;10.55;;;;;;;0.17;59.79;95895.03;5077173;28;20193;-65
2022/01/14 08:06:37;;;;;;;9.45;8.55;;;;;;;0.30;60.18;95883.69;5076370;28;20197;-65
2022/01/14 08:09:05;;;;;;;9.98;9.13;;;;;;;0.37;59.80;95884.25;5076601;28;20185;-65
2022/01/14 08:11:32;;;;;;;9.70;8.80;;;;;;;0.46;59.27;95881.78;5075413;28;20197;-65
2022/01/14 08:13:59;;;;;;;9.65;8.82;;;;;;;0.50;59.34;95874.75;5075977;28;20548;-65
2022/01/14 08:16:25;;;;;;;9.68;8.77;;;;;;;0.59;59.71;95867.72;5076968;28;20204;-65
2022/01/14 08:18:52;;;;;;;8.55;7.80;;;;;;;0.66;59.83;95870.97;5076665;28;20177;-64
2022/01/14 08:21:19;;;;;;;8.38;7.60;;;;;;;0.72;59.54;95885.34;5076130;28;20181;-64
2022/01/14 08:23:46;;;;;;;7.43;6.82;;;;;;;0.71;60.39;95879.09;5074330;28;20203;-65
2022/01/14 08:26:14;;;;;;;8.10;7.30;;;;;;;0.77;60.27;95876.41;5075157;28;20189;-65
2022/01/14 08:28:41;;;;;;;7.95;7.28;;;;;;;0.83;59.87;95881.56;5075933;28;20236;-65
2022/01/14 08:31:08;;;;;;;7.90;7.13;;;;;;;0.88;60.04;95867.19;5075958;28;20193;-65
2022/01/14 08:33:35;;;;;;;8.57;7.78;;;;;;;0.94;60.07;95860.63;5075797;28;20212;-64
2022/01/14 08:36:02;;;;;;;7.60;6.97;;;;;;;0.99;60.29;95854.41;5075911;28;20250;-65
2022/01/14 08:38:29;;;;;;;8.65;7.75;;;;;;;1.03;60.29;95863.63;5075521;28;20177;-65
2022/01/14 08:40:55;;;;;;;7.40;6.70;;;;;;;1.00;61.04;95864.19;5075757;28;20185;-65
2022/01/14 08:43:24;;;;;;;6.47;5.97;;;;;;;1.03;60.92;95858.22;5075193;28;20193;-65
2022/01/14 08:45:50;;;;;;;6.78;6.28;;;;;;;1.11;60.73;95857.66;5075137;28;20197;-65
2022/01/14 08:48:18;;;;;;;7.15;6.45;;;;;;;1.16;61.09;95866.63;5074745;28;20209;-65
2022/01/14 08:50:45;;;;;;;7.50;6.80;;;;;;;1.24;60.35;95856.28;5074848;28;20204;-65
2022/01/14 08:53:14;;;;;;;7.15;6.60;;;;;;;1.29;60.26;95857.06;5075181;28;20213;-65
2022/01/14 08:55:42;;;;;;;7.30;6.70;;;;;;;1.35;60.41;95857.88;5075530;28;20189;-65
2022/01/14 08:58:09;;;;;;;7.35;6.75;;;;;;;1.37;60.55;95847.53;5075224;28;20197;-65
2022/01/14 09:00:37;;;;;;;5.88;5.43;;;;;;;1.41;60.94;95852.13;5075456;28;20186;-64
2022/01/14 09:03:04;;;;;;;6.72;6.20;;;;;;;1.50;60.20;95843.44;5074713;28;20208;-64
2022/01/14 09:05:31;;;;;;;6.85;6.20;;;;;;;1.51;60.16;95842.34;5075385;28;20196;-64
2022/01/14 09:07:59;;;;;;;6.43;5.93;;;;;;;1.54;60.02;95849.94;5074458;28;20204;-64
2022/01/14 09:10:25;;;;;;;7.40;6.72;;;;;;;1.55;60.09;95836.06;5074481;28;20530;-64
2022/01/14 09:12:52;;;;;;;7.70;7.05;;;;;;;1.60;59.82;95833.34;5075204;28;20200;-65
2022/01/14 09:15:19;;;;;;;7.15;6.55;;;;;;;1.60;60.17;95833.34;5074629;28;20233;-65
2022/01/14 09:17:47;;;;;;;8.18;7.47;;;;;;;1.61;59.94;95826.81;5075382;28;20185;-65
2022/01/14 09:20:14;;;;;;;8.20;7.50;;;;;;;1.63;59.73;95821.91;5074593;28;20215;-64
2022/01/14 09:22:50;;;;;;;7.78;7.18;;;;;;;1.69;59.90;95814.53;5075337;28;20189;-65
2022/01/14 09:25:18;;;;;;;7.60;6.90;;;;;;;1.77;59.90;95815.88;5074792;28;20206;-65
2022/01/14 09:27:47;;;;;;;6.75;6.20;;;;;;;1.84;60.13;95811.75;5075076;28;20579;-65
2022/01/14 09:30:14;;;;;;;6.85;6.25;;;;;;;1.88;59.76;95810.09;5075480;28;20231;-65
2022/01/14 09:32:41;;;;;;;7.80;7.05;;;;;;;1.94;59.61;95808.16;5074293;28;20223;-65
2022/01/14 09:35:13;;;;;;;7.07;6.47;;;;;;;1.95;59.68;95792.66;5079488;28;20211;-66
2022/01/14 09:37:41;;;;;;;7.68;6.63;;;;;;;2.02;59.48;95793.16;5081950;28;20215;-65
2022/01/14 09:40:08;;;;;;;6.40;5.78;;;;;;;2.01;59.71;95795.06;5082245;28;20193;-65
2022/01/14 09:42:35;;;;;;;7.05;6.35;;;;;;;2.04;59.92;95797.25;5081887;28;20195;-65
2022/01/14 09:45:02;;;;;;;6.03;5.43;;;;;;;2.03;60.12;95800.22;5081892;28;20200;-65
2022/01/14 09:47:29;;;;;;;6.25;5.70;;;;;;;1.99;60.51;95799.97;5081601;28;20250;-65
2022/01/14 09:49:55;;;;;;;5.53;5.03;;;;;;;1.97;60.60;95788.56;5080700;28;20200;-65
2022/01/14 09:52:24;;;;;;;4.18;3.85;;;;;;;2.02;60.40;95785.00;5080953;28;20258;-65
2022/01/14 09:54:51;;;;;;;4.43;4.03;;;;;;;2.07;60.50;95788.50;5081556;28;20191;-65
2022/01/14 09:57:19;;;;;;;5.38;4.88;;;;;;;2.15;60.31;95785.19;5081819;28;20193;-65
2022/01/14 09:59:46;;;;;;;7.03;4.97;;;;;;;2.17;60.19;95769.38;5080749;28;20199;-64
2022/01/14 10:02:34;;;;;;;5.82;5.32;;;;;;;2.19;60.42;95766.38;5081725;28;20200;-65
2022/01/14 10:05:01;;;;;;;5.82;5.32;;;;;;;2.24;60.18;95749.19;5081518;28;20191;-65
2022/01/14 10:07:31;;;;;;;7.50;5.43;;;;;;;2.30;60.15;95746.16;5081177;28;20193;-64
2022/01/14 10:10:00;;;;;;;6.50;5.95;;;;;;;2.31;60.35;95750.50;5080211;28;20200;-65
2022/01/14 10:12:31;;;;;;;5.95;5.40;;;;;;;2.31;59.94;95741.53;5081626;28;20181;-65
2022/01/14 10:15:02;;;;;;;6.15;5.28;;;;;;;2.37;60.20;95735.75;5081343;28;20200;-65
2022/01/14 10:17:36;;;;;;;5.85;5.35;;;;;;;2.69;59.78;95739.03;5080625;28;20188;-65
2022/01/14 10:20:05;;;;;;;5.97;5.47;;;;;;;2.77;59.03;95716.63;5081401;28;20185;-64
2022/01/14 10:22:35;;;;;;;6.10;5.60;;;;;;;2.73;58.68;95716.41;5080390;28;20203;-64
2022/01/14 10:25:04;;;;;;;6.05;5.55;;;;;;;2.65;59.04;95717.00;5081631;28;20196;-64
2022/01/14 10:27:36;;;;;;;6.28;5.78;;;;;;;2.62;59.08;95715.69;5081030;28;20229;-64
2022/01/14 10:30:15;;;;;;;7.13;6.43;;;;;;;2.63;58.82;95709.13;5080572;28;20196;-64
2022/01/14 10:32:43;;;;;;;6.10;5.60;;;;;;;2.70;58.77;95697.91;5080278;28;20208;-64
2022/01/14 10:35:13;;;;;;;6.38;5.88;;;;;;;2.83;58.44;95704.56;5081192;28;20515;-64
2022/01/14 10:37:41;;;;;;;6.85;6.15;;;;;;;2.93;58.32;95696.28;5080882;28;20185;-65
2022/01/14 10:40:14;;;;;;;6.15;5.55;;;;;;;3.03;57.63;95692.66;5081217;28;20193;-65
2022/01/14 10:42:42;;;;;;;5.95;5.45;;;;;;;3.04;57.30;95689.63;5081451;28;20181;-65
2022/01/14 10:45:22;;;;;;;5.40;4.90;;;;;;;3.02;57.31;95683.66;5079146;28;20201;-64
2022/01/14 10:47:54;;;;;;;5.95;5.45;;;;;;;3.15;57.59;95684.88;5077146;28;20208;-64
2022/01/14 10:50:31;;;;;;;5.90;5.40;;;;;;;3.37;57.06;95685.13;5077575;28;20189;-65
2022/01/14 10:53:00;;;;;;;6.43;5.82;;;;;;;3.66;56.47;95667.84;5077806;28;20209;-64
2022/01/14 10:55:33;;;;;;;5.75;5.25;;;;;;;3.89;55.81;95659.91;5077090;28;20431;-65
2022/01/14 10:58:02;;;;;;;6.68;5.68;;;;;;;4.06;56.05;95654.69;5077284;28;20301;-64
2022/01/14 11:00:29;;;;;;;5.60;5.10;;;;;;;4.13;54.95;95646.94;5076493;28;20213;-64
2022/01/14 11:02:56;;;;;;;6.03;5.38;;;;;;;4.19;54.64;95648.50;5076745;28;20193;-64
2022/01/14 11:05:24;;;;;;;6.03;5.57;;;;;;;4.15;54.91;95658.38;5077007;28;20209;-64
2022/01/14 11:07:52;;;;;;;5.47;5.07;;;;;;;4.21;54.56;95637.25;5077549;28;20181;-65
2022/01/14 11:10:24;;;;;;;5.22;4.70;;;;;;;4.29;54.77;95642.88;5077372;28;20196;-64
2022/01/14 11:12:51;;;;;;;5.20;4.70;;;;;;;4.53;54.77;95641.91;5077382;28;20216;-64
2022/01/14 11:15:18;;;;;;;5.50;5.00;;;;;;;4.92;53.31;95633.25;5076453;28;20518;-64
2022/01/14 11:17:50;;;;;;;5.93;5.43;;;;;;;5.19;53.16;95632.44;5077248;28;20506;-64
2022/01/14 11:20:23;;;;;;;5.78;5.28;;;;;;;5.31;51.99;95618.25;5076181;28;20204;-65
2022/01/14 11:25:40;;;;;;;7.38;6.53;;;;;;;6.06;50.16;95605.09;5077407;28;20185;-64
2022/01/14 11:28:08;;;;;;;6.22;5.63;;;;;;;6.30;49.40;95596.56;5077554;28;20245;-65
2022/01/14 11:30:36;;;;;;;6.70;5.95;;;;;;;6.63;48.85;95588.84;5076148;28;20635;-65
2022/01/14 11:33:03;;;;;;;7.93;6.55;;;;;;;6.90;47.50;95585.91;5076359;28;20221;-65
2022/01/14 11:35:32;;;;;;;7.03;6.30;;;;;;;7.29;47.81;95580.69;5076743;28;20647;-64
2022/01/14 11:37:59;;;;;;;7.88;6.55;;;;;;;7.62;46.49;95570.88;5076065;28;20223;-64
2022/01/14 11:40:26;;;;;;;9.25;6.85;;;;;;;7.95;45.89;95568.50;5076261;28;20233;-65
2022/01/14 11:42:58;;;;;;;7.82;7.05;;;;;;;8.25;45.19;95562.31;5076205;28;20189;-65
2022/01/14 11:45:53;;;;;;;7.88;5.70;;;;;;;8.59;44.07;95559.50;5076855;28;20189;-65
2022/01/14 11:48:36;;;;;;;6.15;5.65;;;;;;;8.78;43.32;95569.31;5076713;28;20201;-65